createdAt,value
2022-09-22T00:05:09.709Z,0
2022-09-22T00:10:49.475Z,0
2022-09-22T00:16:30.541Z,1024.4
2022-09-22T00:22:11.035Z,0
2022-09-22T00:27:51.189Z,0
2022-09-22T00:33:31.022Z,0
2022-09-22T00:39:10.691Z,0
2022-09-22T00:44:50.511Z,0
2022-09-22T00:50:30.497Z,0
2022-09-22T00:56:13.267Z,0
2022-09-22T01:01:53.894Z,0
2022-09-22T01:07:34.384Z,0
2022-09-22T01:13:16.676Z,0
2022-09-22T01:19:00.001Z,0
2022-09-22T01:24:42.753Z,0
2022-09-22T01:30:25.806Z,0
2022-09-22T01:36:05.983Z,0
2022-09-22T01:41:46.410Z,0
2022-09-22T01:47:26.730Z,0
2022-09-22T01:53:06.590Z,0
2022-09-22T01:58:46.529Z,0
2022-09-22T02:04:26.904Z,0
2022-09-22T02:10:07.527Z,0
2022-09-22T02:15:47.992Z,0
2022-09-22T02:21:28.191Z,0
2022-09-22T02:27:08.433Z,0
2022-09-22T02:32:48.563Z,0
2022-09-22T02:38:28.270Z,0
2022-09-22T02:44:08.875Z,0
2022-09-22T02:49:49.189Z,0
2022-09-22T02:55:29.149Z,0
2022-09-22T03:01:09.300Z,0
2022-09-22T03:06:49.742Z,0
2022-09-22T03:12:29.570Z,0
2022-09-22T03:26:09.428Z,0
2022-09-22T03:31:49.868Z,0
2022-09-22T03:37:30.320Z,0
2022-09-22T03:43:20.218Z,0
2022-09-22T03:49:00.425Z,0
2022-09-22T03:54:41.667Z,0
2022-09-22T04:00:22.148Z,0
2022-09-22T04:06:02.694Z,0
2022-09-22T04:11:43.192Z,0
2022-09-22T04:17:23.900Z,0
2022-09-22T04:23:26.333Z,0
2022-09-22T04:29:23.127Z,0
2022-09-22T04:35:09.124Z,0
2022-09-22T04:40:59.512Z,0
2022-09-22T04:46:40.405Z,0
2022-09-22T04:52:24.533Z,0
2022-09-22T04:58:07.429Z,0
2022-09-22T05:03:47.542Z,0
2022-09-22T05:09:27.539Z,0
2022-09-22T05:15:07.486Z,0
2022-09-22T05:20:47.676Z,0
2022-09-22T05:26:27.468Z,0
2022-09-22T05:32:10.480Z,0
2022-09-22T05:37:50.608Z,0
2022-09-22T05:43:30.517Z,0
2022-09-22T05:49:10.375Z,0
2022-09-22T05:54:54.534Z,0
2022-09-22T06:00:37.705Z,1022
2022-09-22T06:06:18.814Z,1022.1
2022-09-22T06:12:02.439Z,1022.4
2022-09-22T06:17:43.243Z,1030.1
2022-09-22T06:23:23.762Z,1026.4
2022-09-22T06:29:03.852Z,1025.8
2022-09-22T06:34:44.429Z,1025
2022-09-22T06:40:26.014Z,1024.1
2022-09-22T06:46:08.111Z,1023.6
2022-09-22T06:51:51.454Z,1023.4
2022-09-22T06:57:32.165Z,0
2022-09-22T07:03:15.598Z,0
2022-09-22T07:08:56.076Z,0
2022-09-22T07:14:39.415Z,0
2022-09-22T07:20:19.843Z,1023.3
2022-09-22T07:26:03.561Z,1023.3
2022-09-22T07:31:44.057Z,1023.2
2022-09-22T07:37:24.717Z,1023.2
2022-09-22T07:43:07.379Z,1023.1
2022-09-22T07:48:47.745Z,1023.1
2022-09-22T07:54:28.087Z,1023.1
2022-09-22T08:00:08.373Z,1023.1
2022-09-22T08:05:49.364Z,1023.1
2022-09-22T08:11:29.372Z,1023
2022-09-22T08:17:09.535Z,1023
2022-09-22T08:22:53.467Z,1023
2022-09-22T08:28:34.175Z,1023
2022-09-22T08:34:14.966Z,1023.1
2022-09-22T08:39:54.869Z,1023.1
2022-09-22T08:45:38.061Z,1023
2022-09-22T08:51:18.117Z,1023.2
2022-09-22T08:56:58.678Z,1023.1
2022-09-22T09:02:40.773Z,1023
2022-09-22T09:08:22.356Z,1023.1
2022-09-22T09:14:05.481Z,1023.1
2022-09-22T09:19:46.869Z,1023.1
2022-09-22T09:25:28.605Z,1023.1
2022-09-22T09:31:08.681Z,1023.1
2022-09-22T09:36:56.458Z,1023
2022-09-22T09:42:37.216Z,1022.9
2022-09-22T09:48:18.320Z,1022.8
2022-09-22T09:54:02.428Z,1022.8
2022-09-22T09:59:44.323Z,1022.7
2022-09-22T10:05:32.102Z,1022.7
2022-09-22T10:11:13.408Z,1022.6
2022-09-22T10:16:57.540Z,1022.7
2022-09-22T10:22:40.241Z,1022.7
2022-09-22T10:28:21.208Z,1022.6
2022-09-22T10:34:05.595Z,1022.6
2022-09-22T10:39:46.803Z,1022.4
2022-09-22T10:45:32.727Z,1022.4
2022-09-22T10:51:16.189Z,1022.4
2022-09-22T10:57:01.232Z,1022.4
2022-09-22T11:02:43.882Z,1022.3
2022-09-22T11:08:24.220Z,1022.2
2022-09-22T11:14:04.657Z,1022.2
2022-09-22T11:19:49.088Z,1022.1
2022-09-22T11:25:29.263Z,1022
2022-09-22T11:31:10.311Z,1022
2022-09-22T11:36:52.133Z,1021.9
2022-09-22T11:42:35.370Z,1021.8
2022-09-22T11:48:18.928Z,1021.7
2022-09-22T11:54:10.221Z,1021.7
2022-09-22T11:59:50.924Z,1021.6
2022-09-22T12:05:30.936Z,1021.6
2022-09-22T12:11:11.613Z,1021.5
2022-09-22T12:16:55.364Z,1021.4
2022-09-22T12:22:36.275Z,1021.4
2022-09-22T12:28:19.446Z,1021.3
2022-09-22T12:34:05.864Z,1021.2
2022-09-22T12:39:49.555Z,1021.2
2022-09-22T12:45:35.687Z,1021.2
2022-09-22T12:51:19.845Z,1021.2
2022-09-22T13:02:48.378Z,1021
2022-09-22T13:08:31.620Z,1020.9
2022-09-22T13:14:18.679Z,1020.9
2022-09-22T13:20:02.951Z,1020.9
2022-09-22T13:25:46.330Z,1020.8
2022-09-22T13:31:35.992Z,1020.7
2022-09-22T13:37:17.787Z,1020.7
2022-09-22T13:42:57.813Z,1020.6
2022-09-22T13:48:38.268Z,1020.6
2022-09-22T13:54:19.323Z,1020.5
2022-09-22T13:59:59.524Z,1020.4
2022-09-22T14:05:54.269Z,1020.3
2022-09-22T14:11:34.696Z,1020.3
2022-09-22T14:17:14.875Z,1020.2
2022-09-22T14:22:55.069Z,1020.1
2022-09-22T14:28:34.896Z,1020
2022-09-22T14:34:15.019Z,1020
2022-09-22T14:39:55.367Z,1019.9
2022-09-22T14:45:36.118Z,1019.9
2022-09-22T14:51:17.641Z,1019.9
2022-09-22T14:56:58.564Z,1019.7
2022-09-22T15:02:39.116Z,1019.6
2022-09-22T15:08:20.010Z,1019.6
2022-09-22T15:14:00.174Z,1019.6
2022-09-22T15:19:40.274Z,1019.6
2022-09-22T15:25:20.472Z,1019.5
2022-09-22T15:31:00.673Z,1019.5
2022-09-22T15:36:41.013Z,1019.4
2022-09-22T15:42:21.803Z,1019.4
2022-09-22T15:48:02.413Z,1019.4
2022-09-22T15:53:42.705Z,1019.4
2022-09-22T15:59:22.999Z,1019.4
2022-09-22T16:05:03.490Z,1019.3
2022-09-22T16:10:43.640Z,1019.3
2022-09-22T16:16:24.067Z,1019.3
2022-09-22T16:22:05.276Z,1019.4
2022-09-22T16:27:45.405Z,1019.3
2022-09-22T16:33:25.903Z,1019.3
2022-09-22T16:39:06.903Z,1019.3
2022-09-22T16:44:47.104Z,1019.3
2022-09-22T16:50:30.523Z,1019.3
2022-09-22T16:56:10.979Z,1019.3
2022-09-22T17:01:52.254Z,1019.4
2022-09-22T17:07:33.115Z,1019.5
2022-09-22T17:13:14.512Z,1019.4
2022-09-22T17:19:14.775Z,1019.4
2022-09-22T17:24:55.058Z,1019.5
2022-09-22T17:30:36.249Z,1019.6
2022-09-22T17:36:21.564Z,1019.6
2022-09-22T17:42:09.874Z,1019.6
2022-09-22T17:47:50.205Z,1019.8
2022-09-22T17:53:30.416Z,1019.9
2022-09-22T17:59:10.621Z,1020.1
2022-09-22T18:04:50.989Z,1020.4
2022-09-22T18:10:31.120Z,1020.6
2022-09-22T18:16:12.285Z,1020.7
2022-09-22T18:21:53.418Z,1021.2
2022-09-22T18:27:33.482Z,1021.5
2022-09-22T18:33:13.815Z,1021.8
2022-09-22T18:38:57.179Z,1021.9
2022-09-22T18:44:37.348Z,1021.9
2022-09-22T18:50:17.569Z,1022.4
2022-09-22T18:55:58.932Z,1023
2022-09-22T19:01:39.445Z,1023.5
2022-09-22T19:07:20.825Z,1023.5
2022-09-22T19:13:01.160Z,1023.4
2022-09-22T19:18:41.295Z,1023.8
2022-09-22T19:24:27.042Z,1024.3
2022-09-22T19:30:07.509Z,1024.1
2022-09-22T19:35:47.831Z,1023.5
2022-09-22T19:41:28.108Z,1022.6
2022-09-22T19:47:08.655Z,1022.2
2022-09-22T19:52:52.617Z,1022
2022-09-22T19:58:35.652Z,1021.9
2022-09-22T20:04:19.007Z,1021.6
2022-09-22T20:10:01.950Z,1021.4
2022-09-22T20:15:48.807Z,1021
2022-09-22T20:21:29.576Z,1020.8
2022-09-22T20:27:15.137Z,1020.5
2022-09-22T20:32:56.359Z,1020.5
2022-09-22T20:38:36.619Z,1020.7
2022-09-22T20:44:16.975Z,1020.7
2022-09-22T20:49:57.387Z,1020.8
2022-09-22T20:55:47.030Z,1020.9
2022-09-22T21:01:32.630Z,1020.9
2022-09-22T21:07:16.445Z,1021
2022-09-22T21:13:02.760Z,1020.9
2022-09-22T21:18:46.648Z,1020.9
2022-09-22T21:24:27.020Z,1020.8
2022-09-22T21:30:07.294Z,1020.8
2022-09-22T21:35:50.250Z,1020.7
2022-09-22T21:41:30.390Z,1020.7
2022-09-22T21:47:10.875Z,1020.8
2022-09-22T21:52:51.036Z,1020.8
2022-09-22T21:58:31.856Z,1020.8
2022-09-22T22:04:12.846Z,1020.8
2022-09-22T22:09:53.547Z,1020.8
2022-09-22T22:15:34.232Z,1020.8
2022-09-22T22:21:15.238Z,1020.7
2022-09-22T22:26:55.793Z,1020.6
2022-09-22T22:32:36.368Z,1020.5
2022-09-22T22:38:16.878Z,1020.2
2022-09-22T22:43:58.124Z,1020
2022-09-22T22:49:38.423Z,1019.9
2022-09-22T22:55:18.703Z,1019.8
2022-09-22T23:00:59.377Z,1019.8
2022-09-22T23:06:40.519Z,1019.7
2022-09-22T23:12:20.863Z,1019.6
2022-09-22T23:18:01.149Z,1019.7
2022-09-22T23:23:41.560Z,1019.6
2022-09-22T23:29:22.172Z,1019.6
2022-09-22T23:35:02.258Z,1019.6
2022-09-22T23:40:43.034Z,1019.6
2022-09-22T23:46:24.441Z,1019.6
2022-09-22T23:52:08.667Z,1019.5
2022-09-22T23:57:51.255Z,1019.5
